Latest Weather Observations for Mount Hotham Airport

IDV60801

Issued at 5:12 am EDT Wednesday 13 November 2019 (issued every 10 minutes, with the page automatically refreshed every 10 minutes)

About weather observations | Map of weather stations | Latest weather observations for VIC | Other Formats
Station Details ID: 083055 Name: MOUNT HOTHAM AIRPORT Lat: -37.05 Lon: 147.33 Height: 1295.4 m
Data from the previous 72 hours. | See also: Recent months at Mount Hotham Airport
Date/Time
EDT
Temp
°C
App
Temp
°C
Dew
Point
°C
Rel
Hum
%
Delta-T
°C
Wind Press
QNH
hPa
Press
MSL
hPa
Rain since
9am
mm
Dir  Spd
km/h
Gust
km/h
Spd
kts
Gust
kts
13/05:00am 0.2 -6.1 -4.4 71 1.6 WSW 20 30 11 16 1011.0 1007.4 0.2
13/04:30am -0.1 -6.5 -4.5 72 1.5 WSW 20 35 11 19 1011.0 1007.4 0.2
13/04:00am -0.1 -7.2 -4.3 73 1.5 W 24 39 13 21 1010.9 1007.3 0.2
13/03:30am -0.4 -5.4 -4.3 75 1.4 WSW 13 19 7 10 1011.4 1007.9 0.2
13/03:00am -0.4 -5.0 -4.3 75 1.4 WSW 11 20 6 11 1011.6 1008.0 0.2
13/02:30am -0.2 -6.5 -4.4 73 1.5 W 20 35 11 19 1011.3 1007.8 0.2
13/02:00am 0.0 -6.7 -4.2 73 1.5 W 22 35 12 19 1011.3 1007.8 0.2
13/01:30am -0.4 -5.8 -4.1 76 1.3 WSW 15 24 8 13 1011.4 1007.9 0.2
13/01:00am -0.3 -6.3 -3.2 81 1.0 WSW 19 33 10 18 1011.7 1008.1 0.2
13/12:33am 0.4 -4.1 -0.5 94 0.4 WSW 13 28 7 15 1011.4 1007.9 0.2
13/12:30am 0.3 -4.6 -0.5 94 0.3 WSW 15 22 8 12 1011.6 1008.0 0.2
13/12:08am 0.6 -4.8 -1.6 85 0.9 WSW 17 32 9 17 1011.6 1008.0 0.0
13/12:05am 0.9 -4.6 -2.0 81 1.1 WSW 17 32 9 17 1011.6 1008.0 0.0
13/12:00am 1.6 -4.3 -2.5 74 1.5 W 19 35 10 19 1011.3 1007.8 0.0
 
Date/Time
EDT
Temp
°C
App
Temp
°C
Dew
Point
°C
Rel
Hum
%
Delta-T
°C
Wind Press
QNH
hPa
Press
MSL
hPa
Rain since
9am
mm
Dir  Spd
km/h
Gust
km/h
Spd
kts
Gust
kts
12/11:30pm 1.8 -4.3 -3.7 67 2.1 W 19 32 10 17 1011.0 1007.4 0.0
12/11:00pm 2.2 -3.9 -2.7 70 1.8 W 20 41 11 22 1011.0 1007.4 0.0
12/10:30pm 2.5 -4.1 -3.2 66 2.1 W 22 41 12 22 1010.9 1007.3 0.0
12/10:00pm 3.0 -4.3 -2.9 65 2.2 W 26 41 14 22 1010.6 1007.1 0.0
12/09:30pm 3.3 -3.2 -2.4 66 2.2 WNW 22 43 12 23 1010.4 1006.8 0.0
12/09:00pm 2.9 -3.1 -1.6 72 1.8 W 20 33 11 18 1010.4 1006.8 0.0
12/08:30pm 4.5 -1.9 -1.5 65 2.4 WNW 22 37 12 20 1010.2 1006.6 0.0
12/08:00pm 5.8 0.2 -2.8 54 3.4 WNW 17 33 9 18 1009.6 1006.0 0.0
12/07:30pm 6.0 0.3 -3.9 49 3.8 W 17 30 9 16 1009.2 1005.6 0.0
12/07:00pm 6.8 0.2 -3.7 47 4.1 W 22 41 12 22 1008.6 1005.0 0.0
12/06:30pm 7.6 1.5 -2.7 48 4.1 W 20 32 11 17 1008.3 1004.6 0.0
12/06:00pm 8.6 1.8 -1.8 48 4.3 WNW 24 35 13 19 1007.8 1004.2 0.0
12/05:30pm 10.4 3.7 -1.0 45 4.9 W 24 41 13 22 1007.2 1003.6 0.0
12/05:00pm 11.2 5.7 0.3 47 4.9 WSW 19 30 10 16 1006.8 1003.1 0.0
12/04:30pm 11.4 6.6 -0.1 45 5.1 WSW 15 26 8 14 1006.2 1002.5 0.0
12/04:00pm 12.5 7.0 0.9 45 5.3 WSW 19 32 10 17 1005.8 1002.1 0.0
12/03:30pm 12.9 7.9 3.8 54 4.4 SW 19 32 10 17 1005.5 1001.8 0.0
12/03:00pm 13.5 9.4 4.4 54 4.5 SW 15 28 8 15 1005.3 1001.6 0.0
12/02:32pm 15.8 7.8 -2.2 29 7.9 WNW 30 50 16 27 1005.1 1001.4 0.0
12/02:30pm 16.0 7.8 -4.0 25 8.5 WNW 30 44 16 24 1005.2 1001.5 0.0
12/02:00pm 14.8 7.7 -0.9 34 7.0 W 26 39 14 21 1005.1 1001.4 0.0
12/01:43pm 14.7 6.7 -2.2 31 7.3 WNW 30 50 16 27 1005.1 1001.4 0.0
12/01:30pm 17.3 10.2 3.6 40 6.8 NW 30 43 16 23 1004.9 1001.1 0.0
12/01:04pm 17.0 9.9 1.4 35 7.4 WNW 28 46 15 25 1004.7 1001.0 0.0
12/01:00pm 16.3 9.4 0.4 34 7.4 WNW 26 46 14 25 1004.9 1001.1 0.0
12/12:30pm 17.5 10.4 1.5 34 7.7 NW 28 41 15 22 1004.9 1001.1 0.0
12/12:00pm 16.3 9.6 -1.3 30 7.9 WNW 24 46 13 25 1004.9 1001.1 0.0
12/11:47am 16.9 9.0 -1.2 29 8.2 NW 30 50 16 27 1005.0 1001.3 0.0
12/11:30am 16.8 9.1 -0.4 31 7.9 WNW 30 41 16 22 1005.2 1001.5 0.0
12/11:00am 16.0 8.7 -0.2 33 7.4 NW 28 39 15 21 1005.3 1001.6 0.0
12/10:43am 15.7 8.3 -0.9 32 7.5 WNW 28 48 15 26 1005.2 1001.5 0.0
12/10:30am 15.7 9.3 -1.4 31 7.6 NNW 22 30 12 16 1005.1 1001.4 0.0
12/10:00am 15.0 7.4 -2.0 31 7.5 NNW 28 46 15 25 1005.1 1001.4 0.0
12/09:44am 14.2 6.5 -3.1 30 7.3 NNW 28 46 15 25 1005.1 1001.4 0.0
12/09:30am 14.7 7.1 -2.2 31 7.3 NW 28 37 15 20 1005.3 1001.6 0.0
12/09:00am 13.0 4.5 -3.3 32 6.8 NNW 32 46 17 25 1005.4 1001.7 0.0
12/08:30am 13.2 4.7 -3.5 31 6.9 NNW 32 43 17 23 1005.5 1001.8 0.0
12/08:00am 13.0 5.2 -3.7 31 6.9 NNW 28 39 15 21 1005.8 1002.1 0.0
12/07:40am 13.3 5.5 -3.9 30 7.1 NNW 28 46 15 25 1006.1 1002.4 0.0
12/07:30am 13.4 5.2 -4.2 29 7.2 NNW 30 46 16 25 1005.9 1002.2 0.0
12/07:14am 13.5 5.7 -4.2 29 7.3 NNW 28 46 15 25 1005.9 1002.2 0.0
12/07:00am 13.7 6.6 -4.5 28 7.5 NNW 24 41 13 22 1006.2 1002.5 0.0
12/06:40am 14.0 6.2 -4.2 28 7.5 NNW 28 50 15 27 1006.1 1002.4 0.0
12/06:30am 13.7 6.2 -4.5 28 7.4 NNW 26 44 14 24 1006.2 1002.5 0.0
12/06:00am 13.9 6.0 -4.8 27 7.6 NNW 28 46 15 25 1006.6 1002.9 0.0
12/05:30am 14.0 5.2 -4.7 27 7.6 NW 33 52 18 28 1007.1 1003.5 0.0
12/05:00am 13.9 5.7 -4.3 28 7.5 NW 30 52 16 28 1007.1 1003.5 0.0
12/04:30am 14.1 4.1 -4.6 27 7.7 NW 39 59 21 32 1007.0 1003.3 0.0
12/04:00am 13.9 5.1 -4.3 28 7.5 NW 33 65 18 35 1006.9 1003.2 0.0
12/03:31am 14.4 3.7 -4.3 27 7.7 NW 43 61 23 33 1008.1 1004.5 0.0
12/03:30am 14.6 4.3 -4.2 27 7.8 NW 41 57 22 31 1008.1 1004.5 0.0
12/03:00am 14.3 2.6 -4.4 27 7.7 NW 48 74 26 40 1008.0 1004.4 0.0
12/02:30am 14.5 2.1 -4.2 27 7.8 NW 52 74 28 40 1007.6 1003.9 0.0
12/02:00am 14.2 2.6 -4.0 28 7.6 NW 48 76 26 41 1007.7 1004.0 0.0
12/01:30am 14.3 2.7 -3.9 28 7.6 NW 48 69 26 37 1008.1 1004.5 0.0
12/01:00am 14.1 3.5 -3.6 29 7.4 NW 43 65 23 35 1008.7 1005.1 0.0
12/12:35am 14.1 5.4 -3.6 29 7.4 NW 33 57 18 31 1009.6 1006.0 0.0
12/12:30am 13.8 5.1 -3.5 30 7.2 NW 33 50 18 27 1009.7 1006.1 0.0
12/12:23am 13.8 5.7 -3.5 30 7.2 NNW 30 48 16 26 1009.9 1006.3 0.0
12/12:00am 13.6 6.6 -3.2 31 7.1 NNW 24 44 13 24 1010.3 1006.7 0.0
 
Date/Time
EDT
Temp
°C
App
Temp
°C
Dew
Point
°C
Rel
Hum
%
Delta-T
°C
Wind Press
QNH
hPa
Press
MSL
hPa
Rain since
9am
mm
Dir  Spd
km/h
Gust
km/h
Spd
kts
Gust
kts
11/11:30pm 13.7 6.7 -3.1 31 7.1 N 24 44 13 24 1011.0 1007.4 0.0
11/11:00pm 13.7 6.0 -3.1 31 7.1 NNW 28 43 15 23 1011.4 1007.9 0.0
11/10:47pm 14.0 6.3 -2.8 31 7.1 NNW 28 50 15 27 1011.9 1008.4 0.0
11/10:30pm 13.5 7.6 -2.4 33 6.8 NNW 19 30 10 16 1012.6 1009.1 0.0
11/10:00pm 12.9 6.9 -1.8 36 6.3 NNW 20 28 11 15 1013.1 1009.6 0.0
11/09:30pm 12.9 7.5 -1.1 38 6.1 WNW 17 19 9 10 1012.9 1009.4 0.0
11/09:00pm 13.3 8.0 -0.7 38 6.2 WNW 17 19 9 10 1013.0 1009.5 0.0
11/08:30pm 13.2 8.0 -0.1 40 6.0 WNW 17 19 9 10 1013.0 1009.5 0.0
11/08:00pm 13.2 8.1 0.9 43 5.6 WNW 17 19 9 10 1013.4 1009.9 0.0
11/07:30pm 13.8 8.8 1.5 43 5.7 WNW 17 19 9 10 1013.5 1010.0 0.0
11/07:00pm 14.7 10.0 2.9 45 5.7 WNW 17 19 9 10 1013.5 1010.0 0.0
11/06:30pm 15.4 10.5 3.9 46 5.7 NW 19 28 10 15 1013.1 1009.6 0.0
11/06:00pm 15.9 10.5 4.6 47 5.7 NW 22 35 12 19 1013.3 1009.8 0.0
11/05:30pm 16.3 10.5 2.3 39 6.8 NW 22 37 12 20 1013.4 1009.9 0.0
11/05:00pm 15.9 10.8 3.0 42 6.3 NW 19 35 10 19 1013.7 1010.2 0.0
11/04:30pm 16.5 10.4 2.9 40 6.7 WNW 24 39 13 21 1014.0 1010.6 0.0
11/04:00pm 16.0 9.9 2.8 41 6.4 NW 24 37 13 20 1014.4 1010.9 0.0
11/03:30pm 16.2 9.9 1.5 37 7.0 NW 24 41 13 22 1014.6 1011.1 0.0
11/03:00pm 16.8 10.9 3.8 42 6.5 NW 24 35 13 19 1014.7 1011.3 0.0
11/02:30pm 16.8 11.1 2.8 39 6.9 NW 22 35 12 19 1014.7 1011.3 0.0
11/02:00pm 16.4 10.2 2.4 39 6.8 NNW 24 37 13 20 1015.2 1011.7 0.0
11/01:30pm 17.2 11.2 3.1 39 7.0 NW 24 35 13 19 1015.3 1011.8 0.0
11/01:00pm 15.5 9.2 1.6 39 6.6 NW 24 35 13 19 1015.5 1012.1 0.0
11/12:30pm 15.7 9.5 2.2 40 6.5 NW 24 35 13 19 1015.7 1012.3 0.0
11/12:00pm 15.2 8.9 1.4 39 6.5 NW 24 35 13 19 1015.9 1012.4 0.0
11/11:30am 15.6 9.9 0.6 36 7.0 NW 20 30 11 16 1016.0 1012.5 0.0
11/11:00am 15.2 9.7 -1.8 31 7.5 NNW 17 32 9 17 1016.0 1012.5 0.0
11/10:30am 15.0 9.0 -1.5 32 7.3 NW 20 35 11 19 1016.1 1012.7 0.0
11/10:00am 14.0 8.1 -2.4 32 7.0 NW 19 32 10 17 1016.0 1012.5 0.0
11/09:30am 13.2 8.6 -0.8 38 6.2 NW 13 26 7 14 1015.9 1012.4 0.0
11/09:00am 10.7 5.5 0.2 48 4.6 N 17 24 9 13 1015.4 1012.0 0.0
11/08:30am 8.6 3.1 0.8 58 3.4 NE 19 26 10 14 1015.5 1012.1 0.0
11/08:00am 9.1 4.7 2.9 65 2.9 NE 15 20 8 11 1015.2 1011.7 0.0
11/07:30am 8.3 4.1 3.8 73 2.1 NNE 15 20 8 11 1015.4 1012.0 0.0
11/07:00am 7.3 3.0 3.5 77 1.8 NNE 15 20 8 11 1015.5 1012.1 0.0
11/06:30am 6.2 2.3 3.2 81 1.4 NNE 13 19 7 10 1015.2 1011.7 0.0
11/06:00am 5.8 1.5 3.5 85 1.0 N 15 19 8 10 1014.4 1010.9 0.0
11/05:30am 5.5 1.6 3.2 85 1.0 NNW 13 17 7 9 1014.4 1010.9 0.0
11/05:00am 4.7 1.4 2.7 87 0.9 NNE 9 13 5 7 1014.3 1010.8 0.0
11/04:30am 5.6 1.6 3.1 84 1.1 NNE 13 17 7 9 1014.5 1011.0 0.0
11/04:00am 5.5 3.0 3.7 88 0.8 NNW 6 11 3 6 1014.7 1011.3 0.0
11/03:30am 4.6 1.4 2.8 88 0.8 WNW 9 17 5 9 1015.0 1011.5 0.0
11/03:00am 4.4 1.2 2.8 89 0.7 WNW 9 17 5 9 1015.1 1011.6 0.0
11/02:30am 6.0 2.2 4.0 87 0.9 NNW 13 17 7 9 1015.2 1011.7 0.0
11/02:00am 5.6 2.1 3.6 87 0.9 NW 11 15 6 8 1015.3 1011.8 0.0
11/01:30am 6.2 1.8 4.7 90 0.7 NW 17 20 9 11 1015.6 1012.2 0.0
11/01:00am 5.0 1.4 3.0 87 0.9 NW 11 17 6 9 1016.2 1012.8 0.0
11/12:30am 5.9 3.4 4.9 93 0.5 NNW 7 11 4 6 1017.0 1013.6 0.0
11/12:00am 4.3 0.4 3.4 94 0.4 NW 13 15 7 8 1016.9 1013.5 0.0
 
Date/Time
EDT
Temp
°C
App
Temp
°C
Dew
Point
°C
Rel
Hum
%
Delta-T
°C
Wind Press
QNH
hPa
Press
MSL
hPa
Rain since
9am
mm
Dir  Spd
km/h
Gust
km/h
Spd
kts
Gust
kts
10/11:30pm 5.2 1.9 4.3 94 0.4 NW 11 15 6 8 1016.8 1013.4 0.0
10/11:00pm 3.6 -0.5 2.1 90 0.6 WNW 13 15 7 8 1016.8 1013.4 0.0
10/10:30pm 5.4 1.4 2.8 83 1.2 WNW 13 17 7 9 1016.8 1013.4 0.0
10/10:00pm 6.5 2.0 4.3 86 1.0 WNW 17 22 9 12 1016.7 1013.2 0.0
10/09:30pm 6.2 2.1 4.2 87 0.9 WNW 15 17 8 9 1016.5 1013.1 0.0
10/09:00pm 6.5 2.7 4.0 84 1.2 WNW 13 17 7 9 1016.4 1013.0 0.0
10/08:30pm 6.0 2.3 2.6 79 1.5 WNW 11 15 6 8 1016.3 1012.9 0.0
10/08:00pm 7.4 4.2 3.1 74 2.0 WNW 9 13 5 7 1016.3 1012.9 0.0
10/07:30pm 9.5 6.8 3.5 66 2.8 W 7 13 4 7 1016.2 1012.8 0.0
10/07:00pm 10.8 7.0 4.0 63 3.3 WNW 13 20 7 11 1015.9 1012.4 0.0
10/06:30pm 11.9 8.6 4.4 60 3.7 W 11 20 6 11 1015.5 1012.1 0.0
10/06:00pm 11.9 7.8 4.2 59 3.7 WSW 15 22 8 12 1015.4 1012.0 0.0
10/05:30pm 12.5 8.1 5.0 60 3.7 W 17 28 9 15 1015.4 1012.0 0.0
10/05:00pm 12.9 9.1 3.8 54 4.4 SW 13 28 7 15 1015.1 1011.6 0.0
10/04:30pm 12.8 8.4 5.0 59 3.9 W 17 32 9 17 1015.0 1011.5 0.0
10/04:00pm 12.1 8.9 5.0 62 3.5 WSW 11 20 6 11 1014.8 1011.4 0.0
10/03:30pm 11.9 7.5 4.9 62 3.5 WSW 17 28 9 15 1015.0 1011.5 0.0
10/03:00pm 10.9 7.1 3.9 62 3.4 W 13 28 7 15 1015.1 1011.6 0.0
10/02:30pm 10.9 6.5 4.6 65 3.1 SW 17 26 9 14 1015.1 1011.6 0.0
10/02:00pm 10.7 6.2 4.2 64 3.1 SW 17 32 9 17 1015.2 1011.7 0.0
10/01:30pm 11.1 6.5 3.9 61 3.5 WSW 17 28 9 15 1015.0 1011.5 0.0
10/01:00pm 11.3 6.7 3.6 59 3.7 WSW 17 30 9 16 1014.8 1011.4 0.0
10/12:30pm 10.5 6.3 4.0 64 3.1 WSW 15 26 8 14 1015.1 1011.6 0.0
10/12:00pm 10.2 6.3 3.5 63 3.2 WSW 13 22 7 12 1015.0 1011.5 0.0
10/11:30am 9.8 5.1 2.9 62 3.2 SW 17 28 9 15 1015.0 1011.5 0.0
10/11:00am 10.8 6.1 5.1 68 2.8 SW 19 30 10 16 1014.8 1011.4 0.0
10/10:30am 8.9 4.1 2.5 64 2.9 SW 17 26 9 14 1014.5 1011.0 0.0
10/10:00am 9.9 5.0 3.9 66 2.9 SW 19 30 10 16 1014.2 1010.7 0.0
10/09:30am 8.2 2.9 2.9 69 2.4 SW 20 32 11 17 1013.9 1010.4 0.0
10/09:00am 6.8 1.0 2.5 74 1.9 WSW 22 32 12 17 1013.7 1010.2 0.0
10/08:30am 6.5 1.7 2.6 76 1.7 WSW 17 32 9 17 1013.4 1009.9 0.0
10/08:00am 5.7 1.6 2.2 78 1.5 SW 13 24 7 13 1013.0 1009.5 0.0
10/07:30am 4.9 0.8 2.1 82 1.2 SW 13 26 7 14 1012.9 1009.4 0.0
10/07:00am 4.5 1.1 2.0 84 1.1 WSW 9 20 5 11 1012.6 1009.1 0.0
10/06:30am 4.2 -0.7 1.9 85 1.0 WSW 17 30 9 16 1012.1 1008.6 0.0
10/06:00am 4.1 -0.8 1.8 85 1.0 WSW 17 26 9 14 1011.9 1008.4 0.0
10/05:30am 4.2 -0.7 1.7 84 1.1 WSW 17 26 9 14 1011.4 1007.9 0.0

Other formats

Comma delimited format used in spreadsheet applications
http://www.bom.gov.au/fwo/IDV60801/IDV60801.94905.axf

JavaScript Object Notation format (JSON) in row-major order
http://www.bom.gov.au/fwo/IDV60801/IDV60801.94905.json

Data quality

Most of these data are generated automatically and are frequently updated. Quality checks on data are not normally performed. It is possible for incorrect values to appear. Refer to information at About Latest Weather Observations and please check the disclaimer before using these data.